sensor_id;sensor_type;location;lat;lon;timestamp;pressure;altitude;pressure_sealevel;temperature;humidity
77939;BME280;67136;47.546;21.630;2023-12-04T00:09:59;100992.97;;;-2.90;100.00
77939;BME280;67136;47.546;21.630;2023-12-04T00:18:48;101000.50;;;-2.81;100.00
77939;BME280;67136;47.546;21.630;2023-12-04T00:26:12;101009.09;;;-2.85;100.00
77939;BME280;67136;47.546;21.630;2023-12-04T00:59:16;101004.56;;;-3.80;100.00
77939;BME280;67136;47.546;21.630;2023-12-04T01:03:04;100999.72;;;-3.39;100.00
77939;BME280;67136;47.546;21.630;2023-12-04T01:12:12;101008.38;;;-4.14;100.00
77939;BME280;67136;47.546;21.630;2023-12-04T01:24:47;101018.38;;;-3.96;100.00
77939;BME280;67136;47.546;21.630;2023-12-04T01:28:45;101017.81;;;-4.19;100.00
77939;BME280;67136;47.546;21.630;2023-12-04T01:44:37;101030.72;;;-4.34;100.00
77939;BME280;67136;47.546;21.630;2023-12-04T01:48:23;101017.22;;;-4.42;100.00
77939;BME280;67136;47.546;21.630;2023-12-04T01:52:17;101023.91;;;-4.31;100.00
77939;BME280;67136;47.546;21.630;2023-12-04T01:59:59;101024.03;;;-4.44;100.00
77939;BME280;67136;47.546;21.630;2023-12-04T02:03:57;101029.19;;;-4.47;100.00
77939;BME280;67136;47.546;21.630;2023-12-04T02:07:56;101030.13;;;-4.57;100.00
77939;BME280;67136;47.546;21.630;2023-12-04T02:16:19;101038.53;;;-4.48;100.00
77939;BME280;67136;47.546;21.630;2023-12-04T02:40:58;101027.59;;;-4.62;100.00
77939;BME280;67136;47.546;21.630;2023-12-04T02:48:21;101032.69;;;-4.57;100.00
77939;BME280;67136;47.546;21.630;2023-12-04T02:56:34;101052.28;;;-4.64;100.00
77939;BME280;67136;47.546;21.630;2023-12-04T03:17:20;101046.22;;;-4.52;100.00
77939;BME280;67136;47.546;21.630;2023-12-04T03:21:22;101054.91;;;-3.90;100.00
77939;BME280;67136;47.546;21.630;2023-12-04T03:43:01;101057.50;;;-4.77;100.00
77939;BME280;67136;47.546;21.630;2023-12-04T03:51:05;101082.22;;;-4.88;100.00
77939;BME280;67136;47.546;21.630;2023-12-04T03:55:15;101089.78;;;-4.75;100.00
77939;BME280;67136;47.546;21.630;2023-12-04T03:59:30;101081.28;;;-4.74;100.00
77939;BME280;67136;47.546;21.630;2023-12-04T04:07:21;101072.03;;;-4.90;100.00
77939;BME280;67136;47.546;21.630;2023-12-04T04:24:26;101071.94;;;-4.76;100.00
77939;BME280;67136;47.546;21.630;2023-12-04T05:13:47;101104.37;;;-4.93;100.00
77939;BME280;67136;47.546;21.630;2023-12-04T05:17:59;101117.88;;;-4.79;100.00
77939;BME280;67136;47.546;21.630;2023-12-04T05:21:56;101115.31;;;-4.79;100.00
77939;BME280;67136;47.546;21.630;2023-12-04T05:26:18;101114.44;;;-4.78;100.00
77939;BME280;67136;47.546;21.630;2023-12-04T05:34:28;101113.66;;;-4.86;100.00
77939;BME280;67136;47.546;21.630;2023-12-04T05:38:33;101114.44;;;-4.72;100.00
77939;BME280;67136;47.546;21.630;2023-12-04T05:43:24;101111.91;;;-4.78;100.00
77939;BME280;67136;47.546;21.630;2023-12-04T05:56:43;101128.94;;;-4.83;100.00
77939;BME280;67136;47.546;21.630;2023-12-04T06:00:15;101128.94;;;-4.85;100.00
77939;BME280;67136;47.546;21.630;2023-12-04T06:08:00;101133.22;;;-4.88;100.00
77939;BME280;67136;47.546;21.630;2023-12-04T06:15:03;101125.63;;;-4.93;100.00
77939;BME280;67136;47.546;21.630;2023-12-04T06:18:17;101120.47;;;-4.87;100.00
77939;BME280;67136;47.546;21.630;2023-12-04T06:29:09;101132.37;;;-4.87;100.00
77939;BME280;67136;47.546;21.630;2023-12-04T06:33:11;101135.72;;;-4.78;100.00
77939;BME280;67136;47.546;21.630;2023-12-04T06:40:29;101127.03;;;-4.54;100.00
77939;BME280;67136;47.546;21.630;2023-12-04T06:44:38;101142.28;;;-4.48;100.00
77939;BME280;67136;47.546;21.630;2023-12-04T06:47:43;101145.59;;;-4.37;100.00
77939;BME280;67136;47.546;21.630;2023-12-04T06:51:22;101154.91;;;-4.30;100.00
77939;BME280;67136;47.546;21.630;2023-12-04T06:54:54;101158.19;;;-4.19;100.00
77939;BME280;67136;47.546;21.630;2023-12-04T06:59:05;101161.25;;;-3.84;100.00
77939;BME280;67136;47.546;21.630;2023-12-04T07:02:32;101164.50;;;-3.67;100.00
77939;BME280;67136;47.546;21.630;2023-12-04T07:06:16;101167.91;;;-3.68;100.00
77939;BME280;67136;47.546;21.630;2023-12-04T07:09:47;101170.38;;;-3.62;100.00
77939;BME280;67136;47.546;21.630;2023-12-04T07:13:05;101163.31;;;-3.40;100.00
77939;BME280;67136;47.546;21.630;2023-12-04T07:16:11;101169.91;;;-3.21;100.00
77939;BME280;67136;47.546;21.630;2023-12-04T07:19:13;101165.41;;;-3.06;100.00
77939;BME280;67136;47.546;21.630;2023-12-04T07:22:18;101166.13;;;-2.93;100.00
77939;BME280;67136;47.546;21.630;2023-12-04T07:25:21;101170.44;;;-2.98;100.00
77939;BME280;67136;47.546;21.630;2023-12-04T07:28:25;101166.09;;;-2.92;100.00
77939;BME280;67136;47.546;21.630;2023-12-04T07:31:27;101165.31;;;-2.97;100.00
77939;BME280;67136;47.546;21.630;2023-12-04T07:34:30;101165.16;;;-2.86;100.00
77939;BME280;67136;47.546;21.630;2023-12-04T07:37:34;101164.31;;;-2.87;100.00
77939;BME280;67136;47.546;21.630;2023-12-04T07:40:37;101164.69;;;-2.55;100.00
77939;BME280;67136;47.546;21.630;2023-12-04T07:43:39;101183.38;;;-2.49;100.00
77939;BME280;67136;47.546;21.630;2023-12-04T07:46:42;101178.25;;;-2.49;100.00
77939;BME280;67136;47.546;21.630;2023-12-04T07:49:45;101174.44;;;-2.24;100.00
77939;BME280;67136;47.546;21.630;2023-12-04T07:52:54;101184.38;;;-2.06;100.00
77939;BME280;67136;47.546;21.630;2023-12-04T07:56:06;101175.22;;;-1.72;100.00
77939;BME280;67136;47.546;21.630;2023-12-04T07:59:11;101184.38;;;-1.59;100.00
77939;BME280;67136;47.546;21.630;2023-12-04T08:02:14;101186.13;;;-1.61;100.00
77939;BME280;67136;47.546;21.630;2023-12-04T08:05:21;101182.41;;;-1.45;99.67
77939;BME280;67136;47.546;21.630;2023-12-04T08:08:29;101183.09;;;-1.37;98.75
77939;BME280;67136;47.546;21.630;2023-12-04T08:11:43;101190.03;;;-1.42;96.16
77939;BME280;67136;47.546;21.630;2023-12-04T08:14:45;101185.53;;;-1.75;98.55
77939;BME280;67136;47.546;21.630;2023-12-04T08:17:49;101189.50;;;-1.59;98.10
77939;BME280;67136;47.546;21.630;2023-12-04T08:20:54;101191.75;;;-1.00;95.32
77939;BME280;67136;47.546;21.630;2023-12-04T08:23:57;101188.84;;;-1.24;94.57
77939;BME280;67136;47.546;21.630;2023-12-04T08:26:59;101190.75;;;-1.36;95.82
77939;BME280;67136;47.546;21.630;2023-12-04T08:30:04;101201.56;;;-1.20;95.51
77939;BME280;67136;47.546;21.630;2023-12-04T08:33:07;101198.41;;;-1.34;93.52
77939;BME280;67136;47.546;21.630;2023-12-04T08:36:11;101190.72;;;-1.80;93.94
77939;BME280;67136;47.546;21.630;2023-12-04T08:39:13;101195.69;;;-1.69;95.64
77939;BME280;67136;47.546;21.630;2023-12-04T08:42:16;101207.09;;;-1.41;92.26
77939;BME280;67136;47.546;21.630;2023-12-04T08:45:25;101219.41;;;-1.15;93.48
77939;BME280;67136;47.546;21.630;2023-12-04T08:48:35;101235.66;;;-1.15;91.46
77939;BME280;67136;47.546;21.630;2023-12-04T08:51:45;101224.25;;;-1.00;89.60
77939;BME280;67136;47.546;21.630;2023-12-04T08:54:59;101235.34;;;-0.22;86.53
77939;BME280;67136;47.546;21.630;2023-12-04T08:58:02;101234.66;;;-0.29;85.78
77939;BME280;67136;47.546;21.630;2023-12-04T09:01:08;101246.16;;;-0.84;87.42
77939;BME280;67136;47.546;21.630;2023-12-04T09:04:11;101239.97;;;-0.74;86.42
77939;BME280;67136;47.546;21.630;2023-12-04T09:07:15;101227.72;;;0.09;83.43
77939;BME280;67136;47.546;21.630;2023-12-04T09:10:20;101232.84;;;0.42;81.86
77939;BME280;67136;47.546;21.630;2023-12-04T09:13:43;101234.31;;;0.83;79.03
77939;BME280;67136;47.546;21.630;2023-12-04T09:16:45;101226.94;;;0.39;81.66
77939;BME280;67136;47.546;21.630;2023-12-04T09:19:48;101214.94;;;1.57;77.07
77939;BME280;67136;47.546;21.630;2023-12-04T09:22:51;101220.59;;;1.68;74.01
77939;BME280;67136;47.546;21.630;2023-12-04T09:26:02;101209.97;;;1.23;74.42
77939;BME280;67136;47.546;21.630;2023-12-04T09:29:07;101219.41;;;1.52;73.30
77939;BME280;67136;47.546;21.630;2023-12-04T09:32:11;101202.87;;;1.59;74.30
77939;BME280;67136;47.546;21.630;2023-12-04T09:35:14;101217.91;;;1.16;74.64
77939;BME280;67136;47.546;21.630;2023-12-04T09:38:17;101210.22;;;0.23;76.87
77939;BME280;67136;47.546;21.630;2023-12-04T09:41:20;101199.00;;;-0.42;79.34
77939;BME280;67136;47.546;21.630;2023-12-04T09:44:24;101203.53;;;-0.91;82.57
77939;BME280;67136;47.546;21.630;2023-12-04T09:47:49;101192.19;;;-0.10;80.90
77939;BME280;67136;47.546;21.630;2023-12-04T09:51:14;101194.84;;;0.84;77.00
77939;BME280;67136;47.546;21.630;2023-12-04T09:54:43;101193.50;;;2.33;70.13
77939;BME280;67136;47.546;21.630;2023-12-04T09:57:46;101189.69;;;1.94;69.46
77939;BME280;67136;47.546;21.630;2023-12-04T10:01:03;101178.84;;;2.59;68.62
77939;BME280;67136;47.546;21.630;2023-12-04T10:04:09;101177.59;;;0.86;74.01
77939;BME280;67136;47.546;21.630;2023-12-04T10:07:13;101177.13;;;0.11;78.08
77939;BME280;67136;47.546;21.630;2023-12-04T10:10:21;101175.19;;;0.51;79.37
77939;BME280;67136;47.546;21.630;2023-12-04T10:13:27;101175.13;;;0.54;77.35
77939;BME280;67136;47.546;21.630;2023-12-04T10:17:14;101164.94;;;1.89;70.08
77939;BME280;67136;47.546;21.630;2023-12-04T10:20:21;101170.59;;;2.00;69.64
77939;BME280;67136;47.546;21.630;2023-12-04T10:23:39;101172.22;;;2.02;69.95
77939;BME280;67136;47.546;21.630;2023-12-04T10:26:53;101172.97;;;2.55;67.81
77939;BME280;67136;47.546;21.630;2023-12-04T10:30:02;101159.75;;;3.52;63.66
77939;BME280;67136;47.546;21.630;2023-12-04T10:33:10;101167.16;;;2.95;64.96
77939;BME280;67136;47.546;21.630;2023-12-04T10:36:22;101157.72;;;1.74;67.67
77939;BME280;67136;47.546;21.630;2023-12-04T10:39:33;101161.22;;;1.97;67.00
77939;BME280;67136;47.546;21.630;2023-12-04T10:43:12;101151.94;;;3.53;62.28
77939;BME280;67136;47.546;21.630;2023-12-04T10:46:49;101162.06;;;1.18;67.40
77939;BME280;67136;47.546;21.630;2023-12-04T10:50:01;101152.75;;;0.25;73.35
77939;BME280;67136;47.546;21.630;2023-12-04T10:53:24;101158.91;;;0.20;75.89
77939;BME280;67136;47.546;21.630;2023-12-04T10:57:10;101157.38;;;0.74;76.04
77939;BME280;67136;47.546;21.630;2023-12-04T11:00:17;101146.25;;;0.73;76.36
77939;BME280;67136;47.546;21.630;2023-12-04T11:03:51;101140.38;;;1.25;74.55
77939;BME280;67136;47.546;21.630;2023-12-04T11:07:29;101139.94;;;2.15;71.13
77939;BME280;67136;47.546;21.630;2023-12-04T11:11:12;101134.56;;;4.94;60.90
77939;BME280;67136;47.546;21.630;2023-12-04T11:14:48;101134.22;;;4.26;57.33
77939;BME280;67136;47.546;21.630;2023-12-04T11:18:09;101138.19;;;2.40;63.76
77939;BME280;67136;47.546;21.630;2023-12-04T11:21:42;101136.81;;;1.01;69.85
77939;BME280;67136;47.546;21.630;2023-12-04T11:25:16;101137.81;;;0.38;72.80
77939;BME280;67136;47.546;21.630;2023-12-04T11:29:19;101141.34;;;0.35;73.73
77939;BME280;67136;47.546;21.630;2023-12-04T11:32:51;101135.59;;;1.13;72.30
77939;BME280;67136;47.546;21.630;2023-12-04T11:36:17;101138.69;;;0.38;73.42
77939;BME280;67136;47.546;21.630;2023-12-04T11:39:40;101130.19;;;0.65;74.79
77939;BME280;67136;47.546;21.630;2023-12-04T11:42:48;101134.66;;;2.20;68.00
77939;BME280;67136;47.546;21.630;2023-12-04T11:46:10;101132.78;;;0.93;70.92
77939;BME280;67136;47.546;21.630;2023-12-04T11:49:37;101127.63;;;0.35;75.96
77939;BME280;67136;47.546;21.630;2023-12-04T11:53:11;101133.25;;;2.34;69.69
77939;BME280;67136;47.546;21.630;2023-12-04T11:56:25;101115.75;;;0.89;73.85
77939;BME280;67136;47.546;21.630;2023-12-04T12:03:50;101114.25;;;1.37;70.93
77939;BME280;67136;47.546;21.630;2023-12-04T12:07:08;101107.28;;;0.26;74.20
77939;BME280;67136;47.546;21.630;2023-12-04T12:10:40;101111.75;;;0.50;74.89
77939;BME280;67136;47.546;21.630;2023-12-04T12:14:31;101106.47;;;0.25;75.09
77939;BME280;67136;47.546;21.630;2023-12-04T12:18:14;101107.16;;;0.61;74.18
77939;BME280;67136;47.546;21.630;2023-12-04T12:21:30;101103.19;;;3.86;63.57
77939;BME280;67136;47.546;21.630;2023-12-04T12:24:59;101111.84;;;5.37;55.16
77939;BME280;67136;47.546;21.630;2023-12-04T12:28:21;101109.28;;;3.22;60.12
77939;BME280;67136;47.546;21.630;2023-12-04T12:31:38;101103.47;;;1.24;67.39
77939;BME280;67136;47.546;21.630;2023-12-04T12:34:54;101092.44;;;0.93;70.40
77939;BME280;67136;47.546;21.630;2023-12-04T12:38:14;101090.66;;;2.92;63.20
77939;BME280;67136;47.546;21.630;2023-12-04T12:41:28;101084.63;;;3.35;62.27
77939;BME280;67136;47.546;21.630;2023-12-04T12:44:49;101072.66;;;1.21;69.10
77939;BME280;67136;47.546;21.630;2023-12-04T12:48:02;101082.19;;;1.96;67.06
77939;BME280;67136;47.546;21.630;2023-12-04T12:51:05;101077.63;;;4.37;58.48
77939;BME280;67136;47.546;21.630;2023-12-04T12:54:09;101077.44;;;5.50;56.51
77939;BME280;67136;47.546;21.630;2023-12-04T12:57:14;101068.84;;;2.78;63.30
77939;BME280;67136;47.546;21.630;2023-12-04T13:00:16;101066.81;;;3.29;60.42
77939;BME280;67136;47.546;21.630;2023-12-04T13:03:22;101056.72;;;3.64;60.18
77939;BME280;67136;47.546;21.630;2023-12-04T13:06:25;101064.16;;;2.19;63.15
77939;BME280;67136;47.546;21.630;2023-12-04T13:09:31;101051.91;;;1.00;69.99
77939;BME280;67136;47.546;21.630;2023-12-04T13:12:36;101053.63;;;0.99;70.39
77939;BME280;67136;47.546;21.630;2023-12-04T13:15:39;101058.47;;;3.01;62.12
77939;BME280;67136;47.546;21.630;2023-12-04T13:18:43;101062.69;;;2.35;62.43
77939;BME280;67136;47.546;21.630;2023-12-04T13:21:47;101064.44;;;0.83;68.87
77939;BME280;67136;47.546;21.630;2023-12-04T13:24:50;101065.69;;;0.99;69.91
77939;BME280;67136;47.546;21.630;2023-12-04T13:27:54;101072.06;;;0.29;72.93
77939;BME280;67136;47.546;21.630;2023-12-04T13:31:04;101069.31;;;0.05;74.35
77939;BME280;67136;47.546;21.630;2023-12-04T13:34:13;101071.53;;;1.30;72.31
77939;BME280;67136;47.546;21.630;2023-12-04T13:37:25;101068.28;;;0.70;71.97
77939;BME280;67136;47.546;21.630;2023-12-04T13:40:34;101049.06;;;0.25;74.12
77939;BME280;67136;47.546;21.630;2023-12-04T13:43:45;101043.22;;;-0.13;75.54
77939;BME280;67136;47.546;21.630;2023-12-04T13:47:00;101047.37;;;-0.07;75.51
77939;BME280;67136;47.546;21.630;2023-12-04T13:50:06;101041.97;;;-0.29;76.52
77939;BME280;67136;47.546;21.630;2023-12-04T13:53:25;101038.47;;;0.34;75.61
77939;BME280;67136;47.546;21.630;2023-12-04T13:56:48;101049.63;;;0.03;76.25
77939;BME280;67136;47.546;21.630;2023-12-04T14:00:04;101035.38;;;-0.39;77.28
77939;BME280;67136;47.546;21.630;2023-12-04T14:03:24;101036.16;;;-0.05;77.00
77939;BME280;67136;47.546;21.630;2023-12-04T14:06:44;101030.25;;;-0.39;77.57
77939;BME280;67136;47.546;21.630;2023-12-04T14:10:09;101025.50;;;-0.89;80.79
77939;BME280;67136;47.546;21.630;2023-12-04T14:13:32;101033.28;;;-0.92;81.99
77939;BME280;67136;47.546;21.630;2023-12-04T14:16:47;101033.81;;;-1.13;83.66
77939;BME280;67136;47.546;21.630;2023-12-04T14:20:17;101027.41;;;-1.32;84.80
77939;BME280;67136;47.546;21.630;2023-12-04T14:23:37;101034.63;;;-1.49;85.76
77939;BME280;67136;47.546;21.630;2023-12-04T14:26:54;101034.88;;;-1.61;87.15
77939;BME280;67136;47.546;21.630;2023-12-04T14:30:02;101036.69;;;-1.66;88.11
77939;BME280;67136;47.546;21.630;2023-12-04T14:33:32;101034.28;;;-1.72;88.09
77939;BME280;67136;47.546;21.630;2023-12-04T14:36:53;101031.56;;;-1.66;89.27
77939;BME280;67136;47.546;21.630;2023-12-04T14:40:27;101030.03;;;-1.73;89.58
77939;BME280;67136;47.546;21.630;2023-12-04T14:43:53;101031.03;;;-1.80;90.24
77939;BME280;67136;47.546;21.630;2023-12-04T14:47:23;101035.19;;;-1.76;90.91
77939;BME280;67136;47.546;21.630;2023-12-04T14:50:36;101024.94;;;-1.76;89.25
77939;BME280;67136;47.546;21.630;2023-12-04T14:53:51;101032.59;;;-1.73;89.69
77939;BME280;67136;47.546;21.630;2023-12-04T14:57:21;101030.63;;;-1.62;89.48
77939;BME280;67136;47.546;21.630;2023-12-04T15:01:12;101023.66;;;-1.56;88.60
77939;BME280;67136;47.546;21.630;2023-12-04T15:04:58;101031.19;;;-1.48;89.31
77939;BME280;67136;47.546;21.630;2023-12-04T15:08:44;101028.62;;;-1.48;89.36
77939;BME280;67136;47.546;21.630;2023-12-04T15:12:16;101020.97;;;-1.51;89.42
77939;BME280;67136;47.546;21.630;2023-12-04T15:15:59;101024.81;;;-1.69;89.80
77939;BME280;67136;47.546;21.630;2023-12-04T15:19:33;101026.81;;;-1.84;91.08
77939;BME280;67136;47.546;21.630;2023-12-04T15:23:11;101035.59;;;-1.96;91.83
77939;BME280;67136;47.546;21.630;2023-12-04T15:26:25;101027.13;;;-1.99;92.21
77939;BME280;67136;47.546;21.630;2023-12-04T15:30:13;101020.41;;;-2.03;93.48
77939;BME280;67136;47.546;21.630;2023-12-04T15:33:34;101023.31;;;-2.23;95.10
77939;BME280;67136;47.546;21.630;2023-12-04T15:37:07;101016.72;;;-2.34;95.41
77939;BME280;67136;47.546;21.630;2023-12-04T15:40:48;101007.25;;;-2.29;95.39
77939;BME280;67136;47.546;21.630;2023-12-04T15:44:08;101007.59;;;-2.47;96.56
77939;BME280;67136;47.546;21.630;2023-12-04T15:47:14;101003.34;;;-2.50;97.49
77939;BME280;67136;47.546;21.630;2023-12-04T15:51:19;101005.94;;;-2.52;97.82
77939;BME280;67136;47.546;21.630;2023-12-04T15:54:52;100995.47;;;-2.39;97.92
77939;BME280;67136;47.546;21.630;2023-12-04T15:58:37;100998.41;;;-2.59;99.62
77939;BME280;67136;47.546;21.630;2023-12-04T16:02:28;100989.19;;;-2.68;99.96
77939;BME280;67136;47.546;21.630;2023-12-04T16:05:56;100985.09;;;-2.78;100.00
77939;BME280;67136;47.546;21.630;2023-12-04T16:09:17;100988.75;;;-2.92;100.00
77939;BME280;67136;47.546;21.630;2023-12-04T16:13:12;100990.44;;;-2.91;100.00
77939;BME280;67136;47.546;21.630;2023-12-04T16:17:00;100991.31;;;-2.91;100.00
77939;BME280;67136;47.546;21.630;2023-12-04T16:20:39;100988.91;;;-3.01;100.00
77939;BME280;67136;47.546;21.630;2023-12-04T16:24:09;100989.66;;;-2.95;100.00
77939;BME280;67136;47.546;21.630;2023-12-04T16:28:23;100987.09;;;-2.95;100.00
77939;BME280;67136;47.546;21.630;2023-12-04T16:32:04;100981.28;;;-3.03;100.00
77939;BME280;67136;47.546;21.630;2023-12-04T16:39:28;100970.13;;;-3.00;100.00
77939;BME280;67136;47.546;21.630;2023-12-04T16:47:21;100962.72;;;-3.17;100.00
77939;BME280;67136;47.546;21.630;2023-12-04T16:51:18;100954.19;;;-3.16;100.00
77939;BME280;67136;47.546;21.630;2023-12-04T16:55:04;100942.16;;;-3.11;100.00
77939;BME280;67136;47.546;21.630;2023-12-04T16:58:41;100943.91;;;-3.11;100.00
77939;BME280;67136;47.546;21.630;2023-12-04T17:06:17;100952.41;;;-3.11;100.00
77939;BME280;67136;47.546;21.630;2023-12-04T17:09:59;100946.50;;;-3.13;100.00
77939;BME280;67136;47.546;21.630;2023-12-04T17:13:43;100946.50;;;-3.13;100.00
77939;BME280;67136;47.546;21.630;2023-12-04T17:21:12;100942.22;;;-3.14;100.00
77939;BME280;67136;47.546;21.630;2023-12-04T17:24:54;100945.50;;;-3.06;100.00
77939;BME280;67136;47.546;21.630;2023-12-04T17:28:07;100945.72;;;-3.18;100.00
77939;BME280;67136;47.546;21.630;2023-12-04T17:31:47;100949.19;;;-3.22;100.00
77939;BME280;67136;47.546;21.630;2023-12-04T17:35:32;100942.34;;;-3.20;100.00
77939;BME280;67136;47.546;21.630;2023-12-04T17:39:20;100933.69;;;-3.13;100.00
77939;BME280;67136;47.546;21.630;2023-12-04T17:46:55;100914.97;;;-3.15;100.00
77939;BME280;67136;47.546;21.630;2023-12-04T17:59:01;100887.56;;;-3.07;100.00
77939;BME280;67136;47.546;21.630;2023-12-04T18:02:27;100881.63;;;-3.09;100.00
77939;BME280;67136;47.546;21.630;2023-12-04T18:06:24;100882.38;;;-3.04;100.00
77939;BME280;67136;47.546;21.630;2023-12-04T18:09:58;100894.34;;;-3.04;100.00
77939;BME280;67136;47.546;21.630;2023-12-04T18:18:09;100884.25;;;-3.12;100.00
77939;BME280;67136;47.546;21.630;2023-12-04T18:22:09;100874.16;;;-3.19;100.00
77939;BME280;67136;47.546;21.630;2023-12-04T18:26:19;100867.50;;;-3.28;100.00
77939;BME280;67136;47.546;21.630;2023-12-04T18:42:51;100872.59;;;-3.28;100.00
77939;BME280;67136;47.546;21.630;2023-12-04T18:55:13;100882.47;;;-3.08;100.00
77939;BME280;67136;47.546;21.630;2023-12-04T18:59:05;100869.69;;;-3.08;100.00
77939;BME280;67136;47.546;21.630;2023-12-04T19:03:17;100863.72;;;-3.09;100.00
77939;BME280;67136;47.546;21.630;2023-12-04T19:07:08;100860.34;;;-3.11;100.00
77939;BME280;67136;47.546;21.630;2023-12-04T19:15:07;100847.03;;;-3.28;100.00
77939;BME280;67136;47.546;21.630;2023-12-04T19:18:41;100841.13;;;-3.31;100.00
77939;BME280;67136;47.546;21.630;2023-12-04T19:27:03;100840.00;;;-3.65;100.00
77939;BME280;67136;47.546;21.630;2023-12-04T19:30:39;100820.37;;;-3.62;100.00
77939;BME280;67136;47.546;21.630;2023-12-04T19:34:47;100815.31;;;-3.65;100.00
77939;BME280;67136;47.546;21.630;2023-12-04T19:39:02;100811.16;;;-3.72;100.00
77939;BME280;67136;47.546;21.630;2023-12-04T19:43:23;100815.41;;;-3.71;100.00
77939;BME280;67136;47.546;21.630;2023-12-04T19:50:26;100820.47;;;-3.68;100.00
77939;BME280;67136;47.546;21.630;2023-12-04T19:58:59;100807.59;;;-3.62;100.00
77939;BME280;67136;47.546;21.630;2023-12-04T20:02:12;100810.22;;;-3.65;100.00
77939;BME280;67136;47.546;21.630;2023-12-04T20:05:39;100804.34;;;-3.71;100.00
77939;BME280;67136;47.546;21.630;2023-12-04T20:16:44;100790.47;;;-3.57;100.00
77939;BME280;67136;47.546;21.630;2023-12-04T20:27:29;100775.69;;;-3.40;100.00
77939;BME280;67136;47.546;21.630;2023-12-04T20:30:59;100761.25;;;-3.44;100.00
77939;BME280;67136;47.546;21.630;2023-12-04T20:34:27;100756.91;;;-3.39;100.00
77939;BME280;67136;47.546;21.630;2023-12-04T20:38:14;100744.97;;;-3.37;100.00
77939;BME280;67136;47.546;21.630;2023-12-04T20:45:46;100733.88;;;-3.37;100.00
77939;BME280;67136;47.546;21.630;2023-12-04T20:49:45;100721.81;;;-3.29;100.00
77939;BME280;67136;47.546;21.630;2023-12-04T20:53:51;100710.84;;;-3.36;100.00
77939;BME280;67136;47.546;21.630;2023-12-04T20:57:45;100711.69;;;-3.35;100.00
77939;BME280;67136;47.546;21.630;2023-12-04T21:01:55;100725.28;;;-3.33;100.00
77939;BME280;67136;47.546;21.630;2023-12-04T21:06:07;100688.66;;;-3.34;100.00
77939;BME280;67136;47.546;21.630;2023-12-04T21:10:24;100678.50;;;-3.37;100.00
77939;BME280;67136;47.546;21.630;2023-12-04T21:18:04;100669.06;;;-3.33;100.00
77939;BME280;67136;47.546;21.630;2023-12-04T21:21:47;100677.53;;;-3.31;100.00
77939;BME280;67136;47.546;21.630;2023-12-04T21:26:10;100665.75;;;-3.38;100.00
77939;BME280;67136;47.546;21.630;2023-12-04T21:29:57;100661.66;;;-3.47;100.00
77939;BME280;67136;47.546;21.630;2023-12-04T21:38:27;100642.97;;;-3.49;100.00
77939;BME280;67136;47.546;21.630;2023-12-04T21:42:05;100634.56;;;-3.54;100.00
77939;BME280;67136;47.546;21.630;2023-12-04T21:54:02;100621.00;;;-3.57;100.00
77939;BME280;67136;47.546;21.630;2023-12-04T21:57:58;100609.91;;;-3.56;100.00
77939;BME280;67136;47.546;21.630;2023-12-04T22:01:53;100603.81;;;-3.51;100.00
77939;BME280;67136;47.546;21.630;2023-12-04T22:14:45;100604.34;;;-3.35;100.00
77939;BME280;67136;47.546;21.630;2023-12-04T22:18:00;100620.66;;;-3.41;100.00
77939;BME280;67136;47.546;21.630;2023-12-04T22:28:58;100614.34;;;-3.25;100.00
77939;BME280;67136;47.546;21.630;2023-12-04T22:32:12;100599.75;;;-3.20;100.00
77939;BME280;67136;47.546;21.630;2023-12-04T22:35:45;100596.50;;;-3.26;100.00
77939;BME280;67136;47.546;21.630;2023-12-04T22:39:35;100587.16;;;-3.29;100.00
77939;BME280;67136;47.546;21.630;2023-12-04T22:55:49;100557.16;;;-3.21;100.00
77939;BME280;67136;47.546;21.630;2023-12-04T23:03:50;100537.72;;;-3.26;100.00
77939;BME280;67136;47.546;21.630;2023-12-04T23:11:09;100532.88;;;-3.38;100.00
77939;BME280;67136;47.546;21.630;2023-12-04T23:18:41;100539.97;;;-3.52;100.00
77939;BME280;67136;47.546;21.630;2023-12-04T23:22:02;100538.28;;;-3.52;100.00
77939;BME280;67136;47.546;21.630;2023-12-04T23:26:57;100526.31;;;-3.50;100.00
77939;BME280;67136;47.546;21.630;2023-12-04T23:31:10;100510.97;;;-3.50;100.00
77939;BME280;67136;47.546;21.630;2023-12-04T23:35:09;100506.59;;;-3.45;100.00
77939;BME280;67136;47.546;21.630;2023-12-04T23:39:20;100496.38;;;-3.45;100.00
77939;BME280;67136;47.546;21.630;2023-12-04T23:43:32;100488.47;;;-3.34;100.00
77939;BME280;67136;47.546;21.630;2023-12-04T23:47:02;100487.72;;;-3.38;100.00
77939;BME280;67136;47.546;21.630;2023-12-04T23:50:50;100482.59;;;-3.38;100.00
77939;BME280;67136;47.546;21.630;2023-12-04T23:54:40;100462.06;;;-3.35;100.00
